sensor_id;sensor_type;location;lat;lon;timestamp;P1;durP1;ratioP1;P2;durP2;ratioP2
34805;SDS011;65084;42.196;25.326;2023-02-14T00:02:18;28.85;;;15.15;;
34805;SDS011;65084;42.196;25.326;2023-02-14T00:04:46;30.10;;;15.75;;
34805;SDS011;65084;42.196;25.326;2023-02-14T00:07:13;28.40;;;13.95;;
34805;SDS011;65084;42.196;25.326;2023-02-14T00:09:40;30.98;;;15.27;;
34805;SDS011;65084;42.196;25.326;2023-02-14T00:12:09;33.63;;;15.70;;
34805;SDS011;65084;42.196;25.326;2023-02-14T00:14:36;30.25;;;15.88;;
34805;SDS011;65084;42.196;25.326;2023-02-14T00:17:21;33.00;;;15.52;;
34805;SDS011;65084;42.196;25.326;2023-02-14T00:19:48;32.30;;;16.42;;
34805;SDS011;65084;42.196;25.326;2023-02-14T00:22:16;37.55;;;17.05;;
34805;SDS011;65084;42.196;25.326;2023-02-14T00:24:43;39.15;;;18.50;;
34805;SDS011;65084;42.196;25.326;2023-02-14T00:27:12;34.75;;;17.15;;
34805;SDS011;65084;42.196;25.326;2023-02-14T00:29:39;34.78;;;17.17;;
34805;SDS011;65084;42.196;25.326;2023-02-14T00:32:06;31.70;;;16.63;;
34805;SDS011;65084;42.196;25.326;2023-02-14T00:34:33;32.00;;;17.02;;
34805;SDS011;65084;42.196;25.326;2023-02-14T00:37:01;30.50;;;17.27;;
34805;SDS011;65084;42.196;25.326;2023-02-14T00:39:29;36.20;;;17.08;;
34805;SDS011;65084;42.196;25.326;2023-02-14T00:41:56;32.45;;;16.05;;
34805;SDS011;65084;42.196;25.326;2023-02-14T00:44:25;37.58;;;16.08;;
34805;SDS011;65084;42.196;25.326;2023-02-14T00:46:52;30.92;;;16.13;;
34805;SDS011;65084;42.196;25.326;2023-02-14T00:49:19;33.92;;;17.05;;
34805;SDS011;65084;42.196;25.326;2023-02-14T00:51:46;39.50;;;16.92;;
34805;SDS011;65084;42.196;25.326;2023-02-14T00:54:14;30.42;;;16.73;;
34805;SDS011;65084;42.196;25.326;2023-02-14T00:56:41;29.90;;;16.55;;
34805;SDS011;65084;42.196;25.326;2023-02-14T00:59:08;34.65;;;18.05;;
34805;SDS011;65084;42.196;25.326;2023-02-14T01:01:37;30.75;;;17.17;;
34805;SDS011;65084;42.196;25.326;2023-02-14T01:04:05;33.42;;;17.08;;
34805;SDS011;65084;42.196;25.326;2023-02-14T01:06:32;35.08;;;17.50;;
34805;SDS011;65084;42.196;25.326;2023-02-14T01:09:00;31.20;;;16.75;;
34805;SDS011;65084;42.196;25.326;2023-02-14T01:11:27;29.20;;;15.98;;
34805;SDS011;65084;42.196;25.326;2023-02-14T01:13:55;30.17;;;16.05;;
34805;SDS011;65084;42.196;25.326;2023-02-14T01:16:22;30.15;;;16.52;;
34805;SDS011;65084;42.196;25.326;2023-02-14T01:18:51;29.55;;;15.38;;
34805;SDS011;65084;42.196;25.326;2023-02-14T01:21:19;30.77;;;15.85;;
34805;SDS011;65084;42.196;25.326;2023-02-14T01:23:47;31.33;;;16.30;;
34805;SDS011;65084;42.196;25.326;2023-02-14T01:26:15;29.98;;;16.35;;
34805;SDS011;65084;42.196;25.326;2023-02-14T01:28:43;29.80;;;15.73;;
34805;SDS011;65084;42.196;25.326;2023-02-14T01:31:11;29.17;;;16.63;;
34805;SDS011;65084;42.196;25.326;2023-02-14T01:33:39;31.52;;;17.55;;
34805;SDS011;65084;42.196;25.326;2023-02-14T01:36:13;30.83;;;16.08;;
34805;SDS011;65084;42.196;25.326;2023-02-14T01:38:40;30.75;;;17.02;;
34805;SDS011;65084;42.196;25.326;2023-02-14T01:41:07;29.15;;;16.08;;
34805;SDS011;65084;42.196;25.326;2023-02-14T01:43:48;33.17;;;18.27;;
34805;SDS011;65084;42.196;25.326;2023-02-14T01:46:15;33.97;;;18.05;;
34805;SDS011;65084;42.196;25.326;2023-02-14T01:48:42;34.53;;;18.73;;
34805;SDS011;65084;42.196;25.326;2023-02-14T01:51:11;31.95;;;17.33;;
34805;SDS011;65084;42.196;25.326;2023-02-14T01:53:38;31.55;;;18.13;;
34805;SDS011;65084;42.196;25.326;2023-02-14T01:56:06;32.63;;;18.38;;
34805;SDS011;65084;42.196;25.326;2023-02-14T01:58:36;35.00;;;18.55;;
34805;SDS011;65084;42.196;25.326;2023-02-14T02:01:04;41.03;;;18.27;;
34805;SDS011;65084;42.196;25.326;2023-02-14T02:03:32;31.25;;;17.95;;
34805;SDS011;65084;42.196;25.326;2023-02-14T02:06:02;34.65;;;19.67;;
34805;SDS011;65084;42.196;25.326;2023-02-14T02:08:34;33.78;;;18.75;;
34805;SDS011;65084;42.196;25.326;2023-02-14T02:11:03;37.28;;;18.98;;
34805;SDS011;65084;42.196;25.326;2023-02-14T02:13:30;37.63;;;19.73;;
34805;SDS011;65084;42.196;25.326;2023-02-14T02:16:02;34.38;;;18.30;;
34805;SDS011;65084;42.196;25.326;2023-02-14T02:18:35;25.15;;;13.25;;
34805;SDS011;65084;42.196;25.326;2023-02-14T02:21:14;37.15;;;18.27;;
34805;SDS011;65084;42.196;25.326;2023-02-14T02:23:54;34.55;;;17.10;;
34805;SDS011;65084;42.196;25.326;2023-02-14T02:26:40;29.65;;;16.65;;
34805;SDS011;65084;42.196;25.326;2023-02-14T02:29:19;29.17;;;13.20;;
34805;SDS011;65084;42.196;25.326;2023-02-14T02:37:25;33.22;;;17.02;;
34805;SDS011;65084;42.196;25.326;2023-02-14T02:40:02;30.83;;;16.77;;
34805;SDS011;65084;42.196;25.326;2023-02-14T02:42:33;38.38;;;19.08;;
34805;SDS011;65084;42.196;25.326;2023-02-14T02:45:05;37.53;;;19.85;;
34805;SDS011;65084;42.196;25.326;2023-02-14T02:47:36;39.85;;;20.67;;
34805;SDS011;65084;42.196;25.326;2023-02-14T02:50:12;38.80;;;19.52;;
34805;SDS011;65084;42.196;25.326;2023-02-14T02:53:04;37.00;;;18.95;;
34805;SDS011;65084;42.196;25.326;2023-02-14T02:55:35;43.67;;;21.52;;
34805;SDS011;65084;42.196;25.326;2023-02-14T02:58:18;39.20;;;20.67;;
34805;SDS011;65084;42.196;25.326;2023-02-14T03:00:46;39.20;;;20.95;;
34805;SDS011;65084;42.196;25.326;2023-02-14T03:03:14;37.30;;;19.40;;
34805;SDS011;65084;42.196;25.326;2023-02-14T03:06:00;38.33;;;18.60;;
34805;SDS011;65084;42.196;25.326;2023-02-14T03:08:29;36.80;;;18.73;;
34805;SDS011;65084;42.196;25.326;2023-02-14T03:10:56;36.70;;;19.52;;
34805;SDS011;65084;42.196;25.326;2023-02-14T03:13:27;35.22;;;17.45;;
34805;SDS011;65084;42.196;25.326;2023-02-14T03:16:02;35.83;;;16.45;;
34805;SDS011;65084;42.196;25.326;2023-02-14T03:18:38;32.28;;;17.08;;
34805;SDS011;65084;42.196;25.326;2023-02-14T03:21:27;31.92;;;16.67;;
34805;SDS011;65084;42.196;25.326;2023-02-14T03:23:57;29.20;;;16.30;;
34805;SDS011;65084;42.196;25.326;2023-02-14T03:26:26;31.58;;;16.67;;
34805;SDS011;65084;42.196;25.326;2023-02-14T03:28:57;37.78;;;18.45;;
34805;SDS011;65084;42.196;25.326;2023-02-14T03:31:27;35.25;;;17.25;;
34805;SDS011;65084;42.196;25.326;2023-02-14T03:33:57;30.10;;;16.85;;
34805;SDS011;65084;42.196;25.326;2023-02-14T03:36:26;35.25;;;17.67;;
34805;SDS011;65084;42.196;25.326;2023-02-14T03:39:01;36.90;;;18.40;;
34805;SDS011;65084;42.196;25.326;2023-02-14T03:41:30;42.60;;;18.63;;
34805;SDS011;65084;42.196;25.326;2023-02-14T03:44:00;35.13;;;16.35;;
34805;SDS011;65084;42.196;25.326;2023-02-14T03:46:29;33.30;;;17.10;;
34805;SDS011;65084;42.196;25.326;2023-02-14T03:48:58;31.73;;;16.83;;
34805;SDS011;65084;42.196;25.326;2023-02-14T03:51:27;34.60;;;16.77;;
34805;SDS011;65084;42.196;25.326;2023-02-14T03:53:59;34.30;;;17.30;;
34805;SDS011;65084;42.196;25.326;2023-02-14T03:56:29;38.97;;;18.83;;
34805;SDS011;65084;42.196;25.326;2023-02-14T03:58:59;41.65;;;21.42;;
34805;SDS011;65084;42.196;25.326;2023-02-14T04:01:32;39.83;;;21.05;;
34805;SDS011;65084;42.196;25.326;2023-02-14T04:04:02;39.15;;;20.38;;
34805;SDS011;65084;42.196;25.326;2023-02-14T04:06:31;40.25;;;18.88;;
34805;SDS011;65084;42.196;25.326;2023-02-14T04:09:00;28.95;;;16.80;;
34805;SDS011;65084;42.196;25.326;2023-02-14T04:11:27;32.00;;;17.52;;
34805;SDS011;65084;42.196;25.326;2023-02-14T04:13:57;29.02;;;17.08;;
34805;SDS011;65084;42.196;25.326;2023-02-14T04:16:24;35.63;;;17.08;;
34805;SDS011;65084;42.196;25.326;2023-02-14T04:18:52;65.55;;;18.83;;
34805;SDS011;65084;42.196;25.326;2023-02-14T04:21:36;33.63;;;17.92;;
34805;SDS011;65084;42.196;25.326;2023-02-14T04:24:05;37.33;;;18.98;;
34805;SDS011;65084;42.196;25.326;2023-02-14T04:26:33;35.45;;;18.65;;
34805;SDS011;65084;42.196;25.326;2023-02-14T04:29:00;33.03;;;18.27;;
34805;SDS011;65084;42.196;25.326;2023-02-14T04:31:27;35.83;;;18.77;;
34805;SDS011;65084;42.196;25.326;2023-02-14T04:33:55;31.77;;;17.50;;
34805;SDS011;65084;42.196;25.326;2023-02-14T04:36:22;35.55;;;18.17;;
34805;SDS011;65084;42.196;25.326;2023-02-14T04:38:49;35.75;;;17.10;;
34805;SDS011;65084;42.196;25.326;2023-02-14T04:41:18;33.13;;;17.02;;
34805;SDS011;65084;42.196;25.326;2023-02-14T04:43:45;31.58;;;16.27;;
34805;SDS011;65084;42.196;25.326;2023-02-14T04:46:12;31.73;;;16.77;;
34805;SDS011;65084;42.196;25.326;2023-02-14T04:48:40;31.77;;;17.17;;
34805;SDS011;65084;42.196;25.326;2023-02-14T04:51:07;33.75;;;16.52;;
34805;SDS011;65084;42.196;25.326;2023-02-14T04:53:34;37.22;;;18.60;;
34805;SDS011;65084;42.196;25.326;2023-02-14T04:56:04;36.83;;;20.63;;
34805;SDS011;65084;42.196;25.326;2023-02-14T04:58:32;36.90;;;19.08;;
34805;SDS011;65084;42.196;25.326;2023-02-14T05:01:00;31.67;;;17.40;;
34805;SDS011;65084;42.196;25.326;2023-02-14T05:03:27;40.25;;;21.33;;
34805;SDS011;65084;42.196;25.326;2023-02-14T05:05:54;55.97;;;24.98;;
34805;SDS011;65084;42.196;25.326;2023-02-14T05:08:22;51.63;;;25.15;;
34805;SDS011;65084;42.196;25.326;2023-02-14T05:10:49;48.50;;;24.15;;
34805;SDS011;65084;42.196;25.326;2023-02-14T05:13:16;46.20;;;24.73;;
34805;SDS011;65084;42.196;25.326;2023-02-14T05:15:45;49.38;;;25.45;;
34805;SDS011;65084;42.196;25.326;2023-02-14T05:18:12;47.88;;;21.83;;
34805;SDS011;65084;42.196;25.326;2023-02-14T05:20:39;46.15;;;22.10;;
34805;SDS011;65084;42.196;25.326;2023-02-14T05:23:07;42.45;;;20.92;;
34805;SDS011;65084;42.196;25.326;2023-02-14T05:25:37;38.92;;;20.42;;
34805;SDS011;65084;42.196;25.326;2023-02-14T05:28:05;37.67;;;18.55;;
34805;SDS011;65084;42.196;25.326;2023-02-14T05:30:32;35.63;;;17.95;;
34805;SDS011;65084;42.196;25.326;2023-02-14T05:33:00;37.03;;;18.67;;
34805;SDS011;65084;42.196;25.326;2023-02-14T05:35:28;38.83;;;20.02;;
34805;SDS011;65084;42.196;25.326;2023-02-14T05:37:55;56.97;;;25.33;;
34805;SDS011;65084;42.196;25.326;2023-02-14T05:40:22;49.35;;;25.85;;
34805;SDS011;65084;42.196;25.326;2023-02-14T05:42:50;50.13;;;25.65;;
34805;SDS011;65084;42.196;25.326;2023-02-14T05:45:18;62.28;;;28.77;;
34805;SDS011;65084;42.196;25.326;2023-02-14T05:47:46;56.88;;;28.58;;
34805;SDS011;65084;42.196;25.326;2023-02-14T05:50:15;58.40;;;29.10;;
34805;SDS011;65084;42.196;25.326;2023-02-14T05:52:42;63.03;;;29.17;;
34805;SDS011;65084;42.196;25.326;2023-02-14T05:55:10;57.97;;;26.98;;
34805;SDS011;65084;42.196;25.326;2023-02-14T05:57:37;48.45;;;23.65;;
34805;SDS011;65084;42.196;25.326;2023-02-14T06:00:05;49.53;;;24.10;;
34805;SDS011;65084;42.196;25.326;2023-02-14T06:02:32;51.33;;;24.30;;
34805;SDS011;65084;42.196;25.326;2023-02-14T06:05:00;50.25;;;23.40;;
34805;SDS011;65084;42.196;25.326;2023-02-14T06:07:28;47.30;;;23.83;;
34805;SDS011;65084;42.196;25.326;2023-02-14T06:09:56;62.00;;;24.92;;
34805;SDS011;65084;42.196;25.326;2023-02-14T06:12:23;52.53;;;24.92;;
34805;SDS011;65084;42.196;25.326;2023-02-14T06:14:50;57.50;;;25.10;;
34805;SDS011;65084;42.196;25.326;2023-02-14T06:17:17;69.07;;;28.10;;
34805;SDS011;65084;42.196;25.326;2023-02-14T06:19:45;70.05;;;29.42;;
34805;SDS011;65084;42.196;25.326;2023-02-14T06:22:12;65.93;;;29.75;;
34805;SDS011;65084;42.196;25.326;2023-02-14T06:24:41;51.63;;;25.15;;
34805;SDS011;65084;42.196;25.326;2023-02-14T06:27:08;46.47;;;23.52;;
34805;SDS011;65084;42.196;25.326;2023-02-14T06:29:36;49.83;;;23.10;;
34805;SDS011;65084;42.196;25.326;2023-02-14T06:32:03;61.35;;;21.83;;
34805;SDS011;65084;42.196;25.326;2023-02-14T06:34:31;44.53;;;22.00;;
34805;SDS011;65084;42.196;25.326;2023-02-14T06:36:58;43.35;;;21.50;;
34805;SDS011;65084;42.196;25.326;2023-02-14T06:39:25;56.67;;;24.23;;
34805;SDS011;65084;42.196;25.326;2023-02-14T06:41:54;52.15;;;23.17;;
34805;SDS011;65084;42.196;25.326;2023-02-14T06:44:21;53.75;;;24.83;;
34805;SDS011;65084;42.196;25.326;2023-02-14T06:46:49;64.38;;;28.30;;
34805;SDS011;65084;42.196;25.326;2023-02-14T06:49:16;63.80;;;28.88;;
34805;SDS011;65084;42.196;25.326;2023-02-14T06:51:43;67.28;;;29.67;;
34805;SDS011;65084;42.196;25.326;2023-02-14T06:54:11;70.50;;;32.10;;
34805;SDS011;65084;42.196;25.326;2023-02-14T06:56:38;64.50;;;31.05;;
34805;SDS011;65084;42.196;25.326;2023-02-14T06:59:06;73.70;;;32.53;;
34805;SDS011;65084;42.196;25.326;2023-02-14T07:01:34;70.43;;;32.42;;
34805;SDS011;65084;42.196;25.326;2023-02-14T07:04:01;62.80;;;29.70;;
34805;SDS011;65084;42.196;25.326;2023-02-14T07:06:28;59.60;;;29.85;;
34805;SDS011;65084;42.196;25.326;2023-02-14T07:08:55;44.35;;;24.52;;
34805;SDS011;65084;42.196;25.326;2023-02-14T07:11:23;58.17;;;30.13;;
34805;SDS011;65084;42.196;25.326;2023-02-14T07:13:50;58.08;;;28.40;;
34805;SDS011;65084;42.196;25.326;2023-02-14T07:16:19;58.40;;;26.70;;
34805;SDS011;65084;42.196;25.326;2023-02-14T07:18:46;53.08;;;27.30;;
34805;SDS011;65084;42.196;25.326;2023-02-14T07:21:13;45.30;;;23.63;;
34805;SDS011;65084;42.196;25.326;2023-02-14T07:23:41;37.67;;;21.45;;
34805;SDS011;65084;42.196;25.326;2023-02-14T07:26:10;48.60;;;24.42;;
34805;SDS011;65084;42.196;25.326;2023-02-14T07:28:42;46.50;;;24.88;;
34805;SDS011;65084;42.196;25.326;2023-02-14T07:31:09;40.60;;;22.23;;
34805;SDS011;65084;42.196;25.326;2023-02-14T07:33:38;32.88;;;19.05;;
34805;SDS011;65084;42.196;25.326;2023-02-14T07:36:05;27.98;;;17.25;;
34805;SDS011;65084;42.196;25.326;2023-02-14T07:38:33;29.55;;;17.15;;
34805;SDS011;65084;42.196;25.326;2023-02-14T07:41:00;34.70;;;17.98;;
34805;SDS011;65084;42.196;25.326;2023-02-14T07:43:28;34.42;;;19.88;;
34805;SDS011;65084;42.196;25.326;2023-02-14T07:45:55;36.38;;;21.20;;
34805;SDS011;65084;42.196;25.326;2023-02-14T07:48:22;39.80;;;22.63;;
34805;SDS011;65084;42.196;25.326;2023-02-14T07:50:51;37.85;;;22.17;;
34805;SDS011;65084;42.196;25.326;2023-02-14T07:53:20;43.80;;;24.50;;
34805;SDS011;65084;42.196;25.326;2023-02-14T07:55:48;36.00;;;21.20;;
34805;SDS011;65084;42.196;25.326;2023-02-14T07:58:15;35.10;;;19.65;;
34805;SDS011;65084;42.196;25.326;2023-02-14T08:00:42;33.08;;;19.98;;
34805;SDS011;65084;42.196;25.326;2023-02-14T08:03:10;41.50;;;20.98;;
34805;SDS011;65084;42.196;25.326;2023-02-14T08:05:38;35.72;;;21.40;;
34805;SDS011;65084;42.196;25.326;2023-02-14T08:08:06;37.50;;;21.75;;
34805;SDS011;65084;42.196;25.326;2023-02-14T08:10:34;38.92;;;22.27;;
34805;SDS011;65084;42.196;25.326;2023-02-14T08:13:01;38.75;;;21.13;;
34805;SDS011;65084;42.196;25.326;2023-02-14T08:15:29;34.97;;;21.83;;
34805;SDS011;65084;42.196;25.326;2023-02-14T08:18:14;40.42;;;22.17;;
34805;SDS011;65084;42.196;25.326;2023-02-14T08:20:42;43.30;;;22.77;;
34805;SDS011;65084;42.196;25.326;2023-02-14T08:23:11;38.55;;;22.50;;
34805;SDS011;65084;42.196;25.326;2023-02-14T08:25:39;40.67;;;23.17;;
34805;SDS011;65084;42.196;25.326;2023-02-14T08:28:06;38.33;;;23.30;;
34805;SDS011;65084;42.196;25.326;2023-02-14T08:30:34;42.78;;;21.70;;
34805;SDS011;65084;42.196;25.326;2023-02-14T08:33:02;34.83;;;21.63;;
34805;SDS011;65084;42.196;25.326;2023-02-14T08:35:31;37.15;;;23.63;;
34805;SDS011;65084;42.196;25.326;2023-02-14T08:37:58;48.47;;;24.90;;
34805;SDS011;65084;42.196;25.326;2023-02-14T08:40:27;35.58;;;22.40;;
34805;SDS011;65084;42.196;25.326;2023-02-14T08:42:54;35.08;;;22.95;;
34805;SDS011;65084;42.196;25.326;2023-02-14T08:45:21;40.55;;;23.88;;
34805;SDS011;65084;42.196;25.326;2023-02-14T08:47:49;45.33;;;26.13;;
34805;SDS011;65084;42.196;25.326;2023-02-14T08:52:43;36.05;;;21.20;;
34805;SDS011;65084;42.196;25.326;2023-02-14T08:55:11;30.52;;;20.77;;
34805;SDS011;65084;42.196;25.326;2023-02-14T08:57:40;34.10;;;20.65;;
34805;SDS011;65084;42.196;25.326;2023-02-14T09:00:08;36.28;;;20.40;;
34805;SDS011;65084;42.196;25.326;2023-02-14T09:02:35;37.97;;;22.42;;
34805;SDS011;65084;42.196;25.326;2023-02-14T09:05:03;37.65;;;21.85;;
34805;SDS011;65084;42.196;25.326;2023-02-14T09:07:32;32.63;;;20.98;;
34805;SDS011;65084;42.196;25.326;2023-02-14T09:09:59;37.33;;;21.40;;
34805;SDS011;65084;42.196;25.326;2023-02-14T09:12:27;40.30;;;21.65;;
34805;SDS011;65084;42.196;25.326;2023-02-14T09:14:55;37.70;;;20.30;;
34805;SDS011;65084;42.196;25.326;2023-02-14T09:17:23;31.23;;;18.15;;
34805;SDS011;65084;42.196;25.326;2023-02-14T09:19:50;30.08;;;19.52;;
34805;SDS011;65084;42.196;25.326;2023-02-14T09:22:17;32.90;;;19.30;;
34805;SDS011;65084;42.196;25.326;2023-02-14T09:24:45;31.33;;;18.25;;
34805;SDS011;65084;42.196;25.326;2023-02-14T09:27:12;32.70;;;17.95;;
34805;SDS011;65084;42.196;25.326;2023-02-14T09:29:40;35.30;;;21.65;;
34805;SDS011;65084;42.196;25.326;2023-02-14T09:32:08;30.17;;;17.67;;
34805;SDS011;65084;42.196;25.326;2023-02-14T09:34:36;25.15;;;17.33;;
34805;SDS011;65084;42.196;25.326;2023-02-14T09:37:03;27.02;;;16.75;;
34805;SDS011;65084;42.196;25.326;2023-02-14T09:39:30;31.65;;;17.65;;
34805;SDS011;65084;42.196;25.326;2023-02-14T09:42:09;28.63;;;15.98;;
34805;SDS011;65084;42.196;25.326;2023-02-14T09:44:42;27.25;;;16.38;;
34805;SDS011;65084;42.196;25.326;2023-02-14T09:50:16;26.67;;;15.40;;
34805;SDS011;65084;42.196;25.326;2023-02-14T09:52:45;23.23;;;14.70;;
34805;SDS011;65084;42.196;25.326;2023-02-14T09:55:13;26.08;;;15.60;;
34805;SDS011;65084;42.196;25.326;2023-02-14T09:57:42;25.25;;;15.98;;
34805;SDS011;65084;42.196;25.326;2023-02-14T10:00:19;45.17;;;20.95;;
34805;SDS011;65084;42.196;25.326;2023-02-14T10:02:53;28.55;;;16.98;;
34805;SDS011;65084;42.196;25.326;2023-02-14T10:05:24;25.65;;;14.90;;
34805;SDS011;65084;42.196;25.326;2023-02-14T10:07:56;26.10;;;15.07;;
34805;SDS011;65084;42.196;25.326;2023-02-14T10:10:25;25.02;;;14.55;;
34805;SDS011;65084;42.196;25.326;2023-02-14T10:12:55;25.27;;;14.70;;
34805;SDS011;65084;42.196;25.326;2023-02-14T10:15:27;21.08;;;13.88;;
34805;SDS011;65084;42.196;25.326;2023-02-14T10:17:56;20.42;;;13.68;;
34805;SDS011;65084;42.196;25.326;2023-02-14T10:20:27;25.73;;;14.00;;
34805;SDS011;65084;42.196;25.326;2023-02-14T10:22:58;20.98;;;13.07;;
34805;SDS011;65084;42.196;25.326;2023-02-14T10:25:30;19.77;;;12.73;;
34805;SDS011;65084;42.196;25.326;2023-02-14T10:28:00;15.07;;;11.05;;
34805;SDS011;65084;42.196;25.326;2023-02-14T10:30:32;23.63;;;13.60;;
34805;SDS011;65084;42.196;25.326;2023-02-14T10:33:02;22.45;;;13.85;;
34805;SDS011;65084;42.196;25.326;2023-02-14T10:35:35;30.13;;;15.93;;
34805;SDS011;65084;42.196;25.326;2023-02-14T10:40:39;32.20;;;16.75;;
34805;SDS011;65084;42.196;25.326;2023-02-14T10:43:10;25.90;;;16.13;;
34805;SDS011;65084;42.196;25.326;2023-02-14T10:45:40;21.90;;;14.52;;
34805;SDS011;65084;42.196;25.326;2023-02-14T10:48:13;18.77;;;13.63;;
34805;SDS011;65084;42.196;25.326;2023-02-14T10:50:45;20.88;;;13.35;;
34805;SDS011;65084;42.196;25.326;2023-02-14T10:53:16;19.35;;;13.80;;
34805;SDS011;65084;42.196;25.326;2023-02-14T10:55:48;22.33;;;13.60;;
34805;SDS011;65084;42.196;25.326;2023-02-14T10:58:19;27.50;;;15.82;;
34805;SDS011;65084;42.196;25.326;2023-02-14T11:00:51;23.75;;;14.95;;
34805;SDS011;65084;42.196;25.326;2023-02-14T11:03:19;21.48;;;15.05;;
34805;SDS011;65084;42.196;25.326;2023-02-14T11:05:47;24.08;;;12.70;;
34805;SDS011;65084;42.196;25.326;2023-02-14T11:08:17;19.00;;;13.60;;
34805;SDS011;65084;42.196;25.326;2023-02-14T11:10:48;19.45;;;12.88;;
34805;SDS011;65084;42.196;25.326;2023-02-14T11:13:32;18.65;;;12.30;;
34805;SDS011;65084;42.196;25.326;2023-02-14T11:16:00;20.60;;;13.27;;
34805;SDS011;65084;42.196;25.326;2023-02-14T11:18:28;20.08;;;12.85;;
34805;SDS011;65084;42.196;25.326;2023-02-14T11:21:06;22.58;;;12.98;;
34805;SDS011;65084;42.196;25.326;2023-02-14T11:23:35;18.40;;;12.55;;
34805;SDS011;65084;42.196;25.326;2023-02-14T11:26:03;19.33;;;11.77;;
34805;SDS011;65084;42.196;25.326;2023-02-14T11:28:31;14.75;;;11.27;;
34805;SDS011;65084;42.196;25.326;2023-02-14T11:31:00;17.45;;;12.45;;
34805;SDS011;65084;42.196;25.326;2023-02-14T11:33:31;16.63;;;12.13;;
34805;SDS011;65084;42.196;25.326;2023-02-14T11:35:59;18.08;;;12.05;;
34805;SDS011;65084;42.196;25.326;2023-02-14T11:38:30;18.85;;;12.88;;
34805;SDS011;65084;42.196;25.326;2023-02-14T11:40:59;21.20;;;13.15;;
34805;SDS011;65084;42.196;25.326;2023-02-14T11:43:30;18.25;;;12.20;;
34805;SDS011;65084;42.196;25.326;2023-02-14T11:46:05;19.45;;;12.40;;
34805;SDS011;65084;42.196;25.326;2023-02-14T11:48:33;17.38;;;11.60;;
34805;SDS011;65084;42.196;25.326;2023-02-14T11:51:00;20.52;;;12.63;;
34805;SDS011;65084;42.196;25.326;2023-02-14T11:53:33;19.55;;;11.55;;
34805;SDS011;65084;42.196;25.326;2023-02-14T11:56:03;17.20;;;11.32;;
34805;SDS011;65084;42.196;25.326;2023-02-14T11:58:32;22.40;;;13.95;;
34805;SDS011;65084;42.196;25.326;2023-02-14T12:01:00;22.48;;;13.02;;
34805;SDS011;65084;42.196;25.326;2023-02-14T12:03:28;22.38;;;12.13;;
34805;SDS011;65084;42.196;25.326;2023-02-14T12:05:58;21.05;;;12.95;;
34805;SDS011;65084;42.196;25.326;2023-02-14T12:08:27;17.00;;;11.68;;
34805;SDS011;65084;42.196;25.326;2023-02-14T12:11:01;19.25;;;12.65;;
34805;SDS011;65084;42.196;25.326;2023-02-14T12:13:29;18.02;;;11.80;;
34805;SDS011;65084;42.196;25.326;2023-02-14T12:15:58;17.98;;;12.00;;
34805;SDS011;65084;42.196;25.326;2023-02-14T12:18:32;21.02;;;13.40;;
34805;SDS011;65084;42.196;25.326;2023-02-14T12:21:03;15.40;;;11.70;;
34805;SDS011;65084;42.196;25.326;2023-02-14T12:23:39;18.17;;;12.77;;
34805;SDS011;65084;42.196;25.326;2023-02-14T12:26:11;23.05;;;12.70;;
34805;SDS011;65084;42.196;25.326;2023-02-14T12:28:41;30.02;;;13.63;;
34805;SDS011;65084;42.196;25.326;2023-02-14T12:31:10;22.23;;;15.27;;
34805;SDS011;65084;42.196;25.326;2023-02-14T12:33:38;19.00;;;13.73;;
34805;SDS011;65084;42.196;25.326;2023-02-14T12:36:08;21.42;;;14.32;;
34805;SDS011;65084;42.196;25.326;2023-02-14T12:38:39;16.50;;;11.95;;
34805;SDS011;65084;42.196;25.326;2023-02-14T12:41:13;19.10;;;13.10;;
34805;SDS011;65084;42.196;25.326;2023-02-14T12:43:44;19.52;;;13.88;;
34805;SDS011;65084;42.196;25.326;2023-02-14T12:49:04;20.83;;;12.52;;
34805;SDS011;65084;42.196;25.326;2023-02-14T12:51:35;16.38;;;12.10;;
34805;SDS011;65084;42.196;25.326;2023-02-14T12:54:07;21.08;;;13.10;;
34805;SDS011;65084;42.196;25.326;2023-02-14T12:56:44;17.00;;;10.95;;
34805;SDS011;65084;42.196;25.326;2023-02-14T12:59:17;14.93;;;10.73;;
34805;SDS011;65084;42.196;25.326;2023-02-14T13:01:57;17.60;;;11.48;;
34805;SDS011;65084;42.196;25.326;2023-02-14T13:07:13;24.23;;;13.25;;
34805;SDS011;65084;42.196;25.326;2023-02-14T13:09:43;19.67;;;11.85;;
34805;SDS011;65084;42.196;25.326;2023-02-14T13:12:18;23.70;;;12.88;;
34805;SDS011;65084;42.196;25.326;2023-02-14T13:14:55;20.45;;;11.05;;
34805;SDS011;65084;42.196;25.326;2023-02-14T13:17:25;21.63;;;11.80;;
34805;SDS011;65084;42.196;25.326;2023-02-14T13:20:00;26.50;;;11.23;;
34805;SDS011;65084;42.196;25.326;2023-02-14T13:22:28;21.50;;;13.23;;
34805;SDS011;65084;42.196;25.326;2023-02-14T13:24:58;28.23;;;15.23;;
34805;SDS011;65084;42.196;25.326;2023-02-14T13:27:30;17.33;;;11.88;;
34805;SDS011;65084;42.196;25.326;2023-02-14T13:29:58;14.88;;;10.48;;
34805;SDS011;65084;42.196;25.326;2023-02-14T13:32:27;16.40;;;11.40;;
34805;SDS011;65084;42.196;25.326;2023-02-14T13:34:56;14.90;;;10.32;;
34805;SDS011;65084;42.196;25.326;2023-02-14T13:37:24;17.50;;;11.85;;
34805;SDS011;65084;42.196;25.326;2023-02-14T13:39:53;15.68;;;11.07;;
34805;SDS011;65084;42.196;25.326;2023-02-14T13:45:18;25.00;;;12.85;;
34805;SDS011;65084;42.196;25.326;2023-02-14T13:48:08;15.60;;;10.00;;
34805;SDS011;65084;42.196;25.326;2023-02-14T13:50:37;21.15;;;11.23;;
34805;SDS011;65084;42.196;25.326;2023-02-14T13:53:08;12.60;;;9.10;;
34805;SDS011;65084;42.196;25.326;2023-02-14T13:55:37;25.73;;;12.45;;
34805;SDS011;65084;42.196;25.326;2023-02-14T13:58:13;17.23;;;12.65;;
34805;SDS011;65084;42.196;25.326;2023-02-14T14:00:43;32.50;;;17.98;;
34805;SDS011;65084;42.196;25.326;2023-02-14T14:03:12;22.65;;;14.60;;
34805;SDS011;65084;42.196;25.326;2023-02-14T14:05:47;26.25;;;14.20;;
34805;SDS011;65084;42.196;25.326;2023-02-14T14:08:15;25.30;;;15.02;;
34805;SDS011;65084;42.196;25.326;2023-02-14T14:10:43;20.30;;;14.43;;
34805;SDS011;65084;42.196;25.326;2023-02-14T14:18:39;18.52;;;13.38;;
34805;SDS011;65084;42.196;25.326;2023-02-14T14:21:13;23.90;;;13.88;;
34805;SDS011;65084;42.196;25.326;2023-02-14T14:23:41;20.88;;;13.70;;
34805;SDS011;65084;42.196;25.326;2023-02-14T14:26:29;28.67;;;17.42;;
34805;SDS011;65084;42.196;25.326;2023-02-14T14:28:56;29.23;;;16.95;;
34805;SDS011;65084;42.196;25.326;2023-02-14T14:31:24;27.10;;;15.90;;
34805;SDS011;65084;42.196;25.326;2023-02-14T14:33:58;28.10;;;13.10;;
34805;SDS011;65084;42.196;25.326;2023-02-14T14:36:26;27.35;;;15.10;;
34805;SDS011;65084;42.196;25.326;2023-02-14T14:38:53;53.78;;;19.15;;
34805;SDS011;65084;42.196;25.326;2023-02-14T14:41:25;31.33;;;17.20;;
34805;SDS011;65084;42.196;25.326;2023-02-14T14:43:53;33.85;;;17.63;;
34805;SDS011;65084;42.196;25.326;2023-02-14T14:46:21;30.88;;;17.90;;
34805;SDS011;65084;42.196;25.326;2023-02-14T14:48:49;31.70;;;18.73;;
34805;SDS011;65084;42.196;25.326;2023-02-14T14:51:22;34.10;;;17.80;;